createdAt,value
2022-11-23T00:00:19.722Z,34.00
2022-11-23T00:03:23.024Z,34.80
2022-11-23T00:06:27.027Z,33.00
2022-11-23T00:09:31.893Z,37.25
2022-11-23T00:12:35.392Z,36.40
2022-11-23T00:15:41.737Z,34.00
2022-11-23T00:18:46.811Z,35.00
2022-11-23T00:21:50.142Z,35.00
2022-11-23T00:24:54.901Z,33.60
2022-11-23T00:27:58.219Z,34.40
2022-11-23T00:31:01.653Z,33.00
2022-11-23T00:34:05.133Z,33.60
2022-11-23T00:37:08.464Z,33.00
2022-11-23T00:40:14.151Z,34.00
2022-11-23T00:43:17.399Z,32.80
2022-11-23T00:46:22.633Z,33.00
2022-11-23T00:49:25.981Z,33.00
2022-11-23T00:52:30.370Z,35.20
2022-11-23T00:55:35.176Z,33.40
2022-11-23T00:58:39.612Z,33.00
2022-11-23T01:01:43.171Z,34.60
2022-11-23T01:04:46.499Z,32.60
2022-11-23T01:07:49.715Z,34.20
2022-11-23T01:10:54.434Z,34.00
2022-11-23T01:13:57.727Z,35.00
2022-11-23T01:17:01.008Z,34.25
2022-11-23T01:20:05.004Z,31.60
2022-11-23T01:23:08.415Z,35.00
2022-11-23T01:26:13.377Z,33.00
2022-11-23T01:29:16.849Z,33.00
2022-11-23T01:32:20.138Z,34.00
2022-11-23T01:35:23.289Z,32.00
2022-11-23T01:38:28.832Z,32.00
2022-11-23T01:41:36.537Z,31.00
2022-11-23T01:44:39.813Z,32.40
2022-11-23T01:47:43.083Z,32.50
2022-11-23T01:50:50.205Z,32.00
2022-11-23T01:53:58.348Z,32.00
2022-11-23T01:57:07.920Z,31.00
2022-11-23T02:00:13.574Z,31.00
2022-11-23T02:03:17.128Z,32.25
2022-11-23T02:06:24.302Z,30.00
2022-11-23T02:09:27.834Z,31.50
2022-11-23T02:12:32.683Z,31.60
2022-11-23T02:15:37.172Z,28.50
2022-11-23T02:18:44.405Z,29.40
2022-11-23T02:21:48.320Z,30.00
2022-11-23T02:24:56.318Z,31.00
2022-11-23T02:28:03.274Z,29.80
2022-11-23T02:31:06.562Z,31.00
2022-11-23T02:34:09.872Z,29.80
2022-11-23T02:37:14.169Z,30.50
2022-11-23T02:40:27.066Z,31.00
2022-11-23T02:43:31.709Z,30.60
2022-11-23T02:46:35.456Z,31.40
2022-11-23T02:53:01.258Z,31.60
2022-11-23T02:56:04.677Z,32.00
2022-11-23T02:59:09.530Z,30.00
2022-11-23T03:02:12.881Z,31.60
2022-11-23T03:05:16.700Z,29.00
2022-11-23T03:08:19.934Z,32.00
2022-11-23T03:11:23.488Z,31.80
2022-11-23T03:14:28.238Z,32.20
2022-11-23T03:17:38.088Z,30.00
2022-11-23T03:20:44.494Z,31.25
2022-11-23T03:23:48.155Z,33.00
2022-11-23T03:26:51.551Z,30.25
2022-11-23T03:29:57.851Z,31.00
2022-11-23T03:33:01.210Z,31.00
2022-11-23T03:36:05.222Z,29.75
2022-11-23T03:39:15.186Z,31.00
2022-11-23T03:42:27.408Z,32.00
2022-11-23T03:45:33.703Z,31.75
2022-11-23T03:48:37.002Z,31.40
2022-11-23T03:51:40.301Z,31.00
2022-11-23T03:54:44.522Z,30.00
2022-11-23T03:57:49.852Z,29.67
2022-11-23T04:00:55.446Z,29.00
2022-11-23T04:03:58.931Z,31.00
2022-11-23T04:07:14.218Z,32.00
2022-11-23T04:10:25.019Z,30.00
2022-11-23T04:13:43.396Z,31.00
2022-11-23T04:16:48.173Z,29.50
2022-11-23T04:19:52.372Z,29.00
2022-11-23T04:22:55.641Z,26.00
2022-11-23T04:25:59.915Z,23.50
2022-11-23T04:29:03.475Z,30.00
2022-11-23T04:32:09.676Z,31.40
2022-11-23T04:35:14.789Z,27.00
2022-11-23T04:38:20.645Z,29.75
2022-11-23T04:41:25.657Z,28.80
2022-11-23T04:44:30.084Z,28.00
2022-11-23T04:47:40.059Z,28.33
2022-11-23T04:50:50.852Z,25.60
2022-11-23T04:54:03.110Z,29.00
2022-11-23T04:57:12.106Z,28.00
2022-11-23T05:00:17.456Z,29.20
2022-11-23T05:03:23.325Z,30.00
2022-11-23T05:06:26.618Z,28.00
2022-11-23T05:09:31.263Z,28.50
2022-11-23T05:12:49.293Z,31.00
2022-11-23T05:15:53.368Z,27.40
2022-11-23T05:19:03.379Z,28.00
2022-11-23T05:22:07.028Z,30.60
2022-11-23T05:25:12.732Z,29.50
2022-11-23T05:28:39.097Z,29.00
2022-11-23T05:31:40.737Z,32.40
2022-11-23T05:34:45.483Z,31.20
2022-11-23T05:37:51.943Z,29.60
2022-11-23T05:40:55.327Z,30.20
2022-11-23T05:43:58.810Z,31.40
2022-11-23T05:47:05.137Z,31.00
2022-11-23T05:50:11.996Z,32.00
2022-11-23T05:53:19.604Z,33.40
2022-11-23T05:56:27.883Z,28.00
2022-11-23T05:59:41.008Z,27.50
2022-11-23T06:02:47.655Z,27.00
2022-11-23T06:05:52.583Z,30.50
2022-11-23T06:09:03.343Z,32.00
2022-11-23T06:12:08.613Z,30.00
2022-11-23T06:15:12.158Z,31.00
2022-11-23T06:18:16.017Z,29.40
2022-11-23T06:21:25.909Z,30.00
2022-11-23T06:24:29.464Z,28.00
2022-11-23T06:27:56.487Z,29.00
2022-11-23T06:31:05.303Z,27.00
2022-11-23T06:34:09.135Z,28.00
2022-11-23T06:37:14.438Z,27.40
2022-11-23T06:40:19.511Z,22.40
2022-11-23T06:43:22.796Z,27.00
2022-11-23T06:46:26.880Z,21.20
2022-11-23T06:49:30.324Z,25.00
2022-11-23T06:52:56.897Z,23.75
2022-11-23T06:56:10.881Z,26.00
2022-11-23T06:59:16.031Z,24.00
2022-11-23T07:02:20.195Z,25.00
2022-11-23T07:05:24.387Z,27.00
2022-11-23T07:08:29.723Z,22.25
2022-11-23T07:11:35.317Z,21.80
2022-11-23T07:14:38.718Z,21.50
2022-11-23T07:17:42.999Z,21.50
2022-11-23T07:20:46.937Z,21.80
2022-11-23T07:23:51.928Z,23.40
2022-11-23T07:26:55.980Z,24.00
2022-11-23T07:29:59.348Z,22.25
2022-11-23T07:33:03.433Z,24.00
2022-11-23T07:36:08.029Z,21.00
2022-11-23T07:39:14.511Z,22.00
2022-11-23T07:42:32.752Z,24.00
2022-11-23T07:45:38.697Z,22.00
2022-11-23T07:48:43.827Z,22.50
2022-11-23T07:51:47.087Z,26.00
2022-11-23T07:54:51.736Z,25.40
2022-11-23T07:57:55.912Z,26.00
2022-11-23T08:00:59.321Z,23.00
2022-11-23T08:04:02.665Z,20.00
2022-11-23T08:07:06.105Z,24.00
2022-11-23T08:10:11.364Z,24.00
2022-11-23T08:13:14.666Z,23.80
2022-11-23T08:16:19.090Z,23.75
2022-11-23T08:19:22.347Z,22.25
2022-11-23T08:22:27.554Z,23.00
2022-11-23T08:25:32.452Z,23.00
2022-11-23T08:28:35.722Z,24.80
2022-11-23T08:31:38.955Z,23.25
2022-11-23T08:34:43.841Z,24.00
2022-11-23T08:37:47.164Z,24.00
2022-11-23T08:40:51.792Z,25.60
2022-11-23T08:43:55.036Z,24.80
2022-11-23T08:46:58.376Z,25.00
2022-11-23T08:50:01.899Z,24.20
2022-11-23T08:53:05.823Z,22.60
2022-11-23T08:56:11.275Z,20.00
2022-11-23T08:59:14.596Z,24.00
2022-11-23T09:02:17.821Z,26.00
2022-11-23T09:05:21.463Z,23.40
2022-11-23T09:08:24.678Z,22.50
2022-11-23T09:11:29.374Z,22.00
2022-11-23T09:14:32.797Z,23.00
2022-11-23T09:17:36.686Z,27.40
2022-11-23T09:20:41.147Z,23.50
2022-11-23T09:23:44.706Z,23.25
2022-11-23T09:26:50.067Z,24.00
2022-11-23T09:29:53.376Z,27.00
2022-11-23T09:32:57.049Z,24.60
2022-11-23T09:36:00.529Z,27.80
2022-11-23T09:39:04.448Z,26.00
2022-11-23T09:42:34.815Z,28.00
2022-11-23T09:45:47.587Z,28.00
2022-11-23T09:49:10.857Z,24.00
2022-11-23T09:52:19.159Z,29.00
2022-11-23T09:55:35.202Z,26.60
2022-11-23T09:58:41.688Z,27.40
2022-11-23T10:01:45.228Z,23.60
2022-11-23T10:04:49.149Z,26.00
2022-11-23T10:08:05.796Z,27.00
2022-11-23T10:11:30.936Z,25.00
2022-11-23T10:14:48.457Z,24.20
2022-11-23T10:18:21.208Z,27.00
2022-11-23T10:21:36.146Z,25.00
2022-11-23T10:24:45.439Z,26.00
2022-11-23T10:27:52.199Z,26.00
2022-11-23T10:31:03.199Z,28.80
2022-11-23T10:34:12.970Z,28.00
2022-11-23T10:37:18.524Z,28.20
2022-11-23T10:40:26.845Z,26.00
2022-11-23T10:43:36.339Z,26.00
2022-11-23T10:46:41.974Z,26.00
2022-11-23T10:49:58.528Z,28.00
2022-11-23T10:53:13.561Z,27.00
2022-11-23T10:56:16.886Z,28.00
2022-11-23T10:59:34.866Z,28.00
2022-11-23T11:02:42.803Z,23.00
2022-11-23T11:06:09.023Z,26.40
2022-11-23T11:09:22.536Z,26.00
2022-11-23T11:12:28.681Z,25.40
2022-11-23T11:15:32.986Z,28.00
2022-11-23T11:18:43.257Z,26.00
2022-11-23T11:21:47.791Z,26.00
2022-11-23T11:24:52.256Z,30.20
2022-11-23T11:27:55.839Z,28.00
2022-11-23T11:31:14.595Z,27.00
2022-11-23T11:34:25.055Z,28.00
2022-11-23T11:37:34.104Z,27.00
2022-11-23T11:40:42.908Z,28.00
2022-11-23T11:43:49.868Z,27.00
2022-11-23T11:46:59.082Z,26.00
2022-11-23T11:50:18.615Z,26.00
2022-11-23T11:53:27.965Z,26.00
2022-11-23T11:56:38.319Z,27.00
2022-11-23T11:59:45.250Z,28.25
2022-11-23T12:02:59.578Z,26.00
2022-11-23T12:06:10.001Z,25.60
2022-11-23T12:09:17.866Z,28.00
2022-11-23T12:12:29.440Z,24.00
2022-11-23T12:15:49.410Z,27.80
2022-11-23T12:19:03.654Z,26.33
2022-11-23T12:22:26.639Z,24.00
2022-11-23T12:25:36.889Z,27.00
2022-11-23T12:29:15.219Z,28.00
2022-11-23T12:32:30.934Z,28.00
2022-11-23T12:35:56.937Z,25.00
2022-11-23T12:39:11.205Z,27.40
2022-11-23T12:42:25.156Z,24.00
2022-11-23T12:45:45.130Z,24.00
2022-11-23T12:49:04.474Z,27.00
2022-11-23T12:52:28.051Z,26.80
2022-11-23T12:55:45.050Z,24.00
2022-11-23T12:58:51.347Z,24.50
2022-11-23T13:02:00.672Z,25.50
2022-11-23T13:05:30.354Z,26.80
2022-11-23T13:09:06.539Z,26.00
2022-11-23T13:12:28.485Z,26.67
2022-11-23T13:15:49.888Z,28.00
2022-11-23T13:19:07.346Z,28.00
2022-11-23T13:22:18.184Z,25.00
2022-11-23T13:25:28.786Z,24.00
2022-11-23T13:28:33.365Z,23.20
2022-11-23T13:31:36.837Z,26.20
2022-11-23T13:34:48.434Z,26.80
2022-11-23T13:38:39.306Z,25.50
2022-11-23T13:42:00.716Z,27.00
2022-11-23T13:45:27.569Z,27.25
2022-11-23T13:52:07.505Z,27.00
2022-11-23T13:55:23.213Z,25.20
2022-11-23T13:58:51.102Z,27.00
2022-11-23T14:02:04.875Z,26.80
2022-11-23T14:05:54.626Z,28.00
2022-11-23T14:09:06.832Z,26.00
2022-11-23T14:12:20.229Z,27.00
2022-11-23T14:15:25.098Z,27.00
2022-11-23T14:18:47.991Z,27.00
2022-11-23T14:22:03.711Z,24.00
2022-11-23T14:25:37.120Z,29.00
2022-11-23T14:28:53.823Z,27.60
2022-11-23T14:32:16.369Z,27.00
2022-11-23T14:35:33.208Z,28.00
2022-11-23T14:38:58.251Z,27.00
2022-11-23T14:42:04.775Z,28.20
2022-11-23T14:45:14.990Z,27.60
2022-11-23T14:48:28.907Z,25.60
2022-11-23T14:51:36.224Z,28.00
2022-11-23T14:54:40.504Z,26.20
2022-11-23T14:57:47.433Z,28.00
2022-11-23T15:00:51.597Z,30.00
2022-11-23T15:03:59.112Z,26.00
2022-11-23T15:07:11.244Z,24.50
2022-11-23T15:10:28.864Z,28.80
2022-11-23T15:13:42.786Z,27.00
2022-11-23T15:16:46.056Z,27.40
2022-11-23T15:19:57.249Z,28.00
2022-11-23T15:23:03.465Z,27.20
2022-11-23T15:26:28.590Z,26.75
2022-11-23T15:29:39.962Z,28.00
2022-11-23T15:32:43.808Z,30.00
2022-11-23T15:35:48.431Z,29.00
2022-11-23T15:38:53.825Z,28.00
2022-11-23T15:41:57.859Z,27.80
2022-11-23T15:45:01.355Z,29.00
2022-11-23T15:48:07.805Z,28.00
2022-11-23T15:51:26.213Z,27.75
2022-11-23T15:54:35.929Z,27.20
2022-11-23T15:57:41.300Z,28.40
2022-11-23T16:00:51.177Z,28.00
2022-11-23T16:04:01.168Z,28.00
2022-11-23T16:07:17.504Z,24.20
2022-11-23T16:10:24.637Z,29.00
2022-11-23T16:13:38.937Z,30.20
2022-11-23T16:16:46.065Z,27.25
2022-11-23T16:19:51.442Z,29.20
2022-11-23T16:22:57.143Z,27.00
2022-11-23T16:26:04.133Z,28.00
2022-11-23T16:29:07.455Z,28.00
2022-11-23T16:32:24.336Z,29.40
2022-11-23T16:35:27.891Z,29.50
2022-11-23T16:38:31.800Z,27.50
2022-11-23T16:41:36.700Z,28.00
2022-11-23T16:44:41.957Z,28.00
2022-11-23T16:47:54.044Z,28.00
2022-11-23T16:50:59.046Z,27.40
2022-11-23T16:54:24.410Z,28.00
2022-11-23T16:57:31.200Z,28.00
2022-11-23T17:00:34.530Z,28.00
2022-11-23T17:03:41.374Z,26.33
2022-11-23T17:06:44.722Z,30.00
2022-11-23T17:09:48.074Z,27.20
2022-11-23T17:12:55.182Z,28.75
2022-11-23T17:15:58.448Z,27.00
2022-11-23T17:19:01.723Z,28.00
2022-11-23T17:22:05.341Z,28.00
2022-11-23T17:25:14.409Z,29.00
2022-11-23T17:28:22.598Z,26.60
2022-11-23T17:31:25.960Z,28.33
2022-11-23T17:34:29.239Z,30.00
2022-11-23T17:37:32.605Z,29.40
2022-11-23T17:40:35.905Z,30.00
2022-11-23T17:43:40.538Z,26.00
2022-11-23T17:46:44.447Z,28.00
2022-11-23T17:49:47.786Z,31.60
2022-11-23T17:52:51.239Z,29.50
2022-11-23T17:55:54.720Z,29.00
2022-11-23T17:58:59.307Z,28.20
2022-11-23T18:02:03.182Z,30.80
2022-11-23T18:05:07.366Z,30.00
2022-11-23T18:08:11.964Z,28.00
2022-11-23T18:11:15.675Z,29.00
2022-11-23T18:14:21.893Z,27.20
2022-11-23T18:17:25.203Z,28.20
2022-11-23T18:20:28.353Z,31.00
2022-11-23T18:23:31.883Z,28.00
2022-11-23T18:26:35.045Z,28.00
2022-11-23T18:29:40.399Z,26.80
2022-11-23T18:32:43.561Z,27.20
2022-11-23T18:35:46.881Z,28.00
2022-11-23T18:38:50.209Z,29.00
2022-11-23T18:41:53.492Z,26.50
2022-11-23T18:44:58.118Z,30.00
2022-11-23T18:48:01.307Z,28.00
2022-11-23T18:51:04.578Z,27.00
2022-11-23T18:54:08.280Z,30.00
2022-11-23T18:57:12.933Z,28.00
2022-11-23T19:00:19.552Z,27.00
2022-11-23T19:03:23.247Z,27.60
2022-11-23T19:06:26.603Z,28.25
2022-11-23T19:09:29.899Z,28.00
2022-11-23T19:12:33.590Z,26.00
2022-11-23T19:15:38.379Z,28.20
2022-11-23T19:18:41.815Z,27.00
2022-11-23T19:21:45.287Z,28.00
2022-11-23T19:24:48.638Z,26.75
2022-11-23T19:27:52.848Z,28.00
2022-11-23T19:30:57.720Z,26.60
2022-11-23T19:34:02.595Z,25.00
2022-11-23T19:37:05.859Z,24.60
2022-11-23T19:40:11.079Z,28.00
2022-11-23T19:43:14.380Z,25.75
2022-11-23T19:46:19.397Z,26.00
2022-11-23T19:49:22.758Z,27.60
2022-11-23T19:52:41.647Z,28.00
2022-11-23T19:55:49.484Z,28.00
2022-11-23T19:58:54.599Z,29.00
2022-11-23T20:01:59.594Z,28.40
2022-11-23T20:05:03.301Z,30.00
2022-11-23T20:08:06.931Z,27.60
2022-11-23T20:11:12.564Z,29.00
2022-11-23T20:14:16.668Z,28.00
2022-11-23T20:17:21.326Z,27.60
2022-11-23T20:20:24.603Z,29.00
2022-11-23T20:23:27.992Z,26.00
2022-11-23T20:26:31.925Z,29.40
2022-11-23T20:29:35.451Z,31.00
2022-11-23T20:32:40.237Z,24.00
2022-11-23T20:35:43.548Z,27.25
2022-11-23T20:38:47.468Z,26.50
2022-11-23T20:41:50.701Z,29.00
2022-11-23T20:44:53.890Z,28.00
2022-11-23T20:47:58.889Z,28.00
2022-11-23T20:51:06.196Z,24.00
2022-11-23T20:54:12.561Z,27.00
2022-11-23T20:57:15.864Z,28.80
2022-11-23T21:00:20.768Z,29.00
2022-11-23T21:03:25.773Z,26.60
2022-11-23T21:06:34.451Z,24.80
2022-11-23T21:09:40.688Z,26.20
2022-11-23T21:13:01.407Z,28.00
2022-11-23T21:16:07.104Z,28.00
2022-11-23T21:19:12.091Z,28.00
2022-11-23T21:22:16.613Z,29.40
2022-11-23T21:25:20.427Z,31.00
2022-11-23T21:28:24.842Z,28.00
2022-11-23T21:31:30.309Z,25.60
2022-11-23T21:34:37.858Z,30.80
2022-11-23T21:37:41.755Z,28.60
2022-11-23T21:40:46.572Z,27.00
2022-11-23T21:43:52.725Z,28.40
2022-11-23T21:46:56.352Z,26.60
2022-11-23T21:50:00.990Z,26.40
2022-11-23T21:53:04.313Z,27.00
2022-11-23T21:56:10.757Z,27.00
2022-11-23T21:59:14.829Z,27.00
2022-11-23T22:06:00.365Z,28.00
2022-11-23T22:09:07.041Z,26.75
2022-11-23T22:12:11.263Z,27.20
2022-11-23T22:15:15.609Z,28.00
2022-11-23T22:18:19.210Z,26.80
2022-11-23T22:21:26.094Z,26.60
2022-11-23T22:24:29.574Z,28.00
2022-11-23T22:27:33.116Z,28.00
2022-11-23T22:30:36.478Z,31.00
2022-11-23T22:33:40.962Z,27.20
2022-11-23T22:36:45.825Z,29.60
2022-11-23T22:39:49.677Z,30.50
2022-11-23T22:42:54.316Z,28.00
2022-11-23T22:46:05.602Z,26.80
2022-11-23T22:49:09.751Z,31.00
2022-11-23T22:52:14.664Z,30.25
2022-11-23T22:55:18.085Z,28.00
2022-11-23T22:58:22.162Z,29.60
2022-11-23T23:01:27.600Z,28.00
2022-11-23T23:04:31.319Z,32.25
2022-11-23T23:07:36.507Z,28.00
2022-11-23T23:10:39.973Z,30.40
2022-11-23T23:13:44.057Z,32.00
2022-11-23T23:16:47.806Z,30.00
2022-11-23T23:19:51.613Z,31.80
2022-11-23T23:22:56.790Z,31.20
2022-11-23T23:26:00.099Z,31.00
2022-11-23T23:29:03.615Z,31.33
2022-11-23T23:32:07.411Z,31.50
2022-11-23T23:35:11.024Z,33.00
2022-11-23T23:38:18.710Z,33.60
2022-11-23T23:41:22.530Z,32.00
2022-11-23T23:44:26.174Z,30.00
2022-11-23T23:47:29.649Z,34.00
2022-11-23T23:50:35.161Z,29.80
2022-11-23T23:53:40.672Z,30.00
2022-11-23T23:56:44.031Z,32.60
2022-11-23T23:59:47.442Z,31.20
